createdAt,value
2023-02-24T00:01:16.498Z,94235.09
2023-02-24T00:03:42.797Z,94235.56
2023-02-24T00:06:09.070Z,94230.03
2023-02-24T00:08:35.333Z,94234.28
2023-02-24T00:11:01.607Z,94226.94
2023-02-24T00:13:27.857Z,94229.56
2023-02-24T00:15:54.113Z,94214.31
2023-02-24T00:18:20.360Z,94208.13
2023-02-24T00:20:46.629Z,94199.09
2023-02-24T00:23:12.875Z,94198.97
2023-02-24T00:25:39.111Z,94186.25
2023-02-24T00:28:05.358Z,94182.44
2023-02-24T00:30:31.625Z,94180.34
2023-02-24T00:32:57.918Z,94184.78
2023-02-24T00:35:24.171Z,94186.69
2023-02-24T00:37:50.429Z,94186.06
2023-02-24T00:40:16.681Z,94191.06
2023-02-24T00:42:42.928Z,94194.22
2023-02-24T00:45:09.170Z,94191.56
2023-02-24T00:47:35.405Z,94191.84
2023-02-24T00:50:01.693Z,94190.09
2023-02-24T00:52:27.977Z,94201.31
2023-02-24T00:54:54.245Z,94200.38
2023-02-24T00:57:20.530Z,94204.00
2023-02-24T00:59:46.799Z,94198.44
2023-02-24T01:02:13.058Z,94199.13
2023-02-24T01:04:39.331Z,94194.31
2023-02-24T01:07:05.582Z,94194.44
2023-02-24T01:09:31.851Z,94184.13
2023-02-24T01:11:58.164Z,94186.28
2023-02-24T01:14:24.455Z,94184.19
2023-02-24T01:16:50.712Z,94178.22
2023-02-24T01:19:16.961Z,94179.72
2023-02-24T01:21:43.205Z,94175.28
2023-02-24T01:24:09.467Z,94169.06
2023-02-24T01:26:35.730Z,94166.84
2023-02-24T01:29:02.005Z,94159.34
2023-02-24T01:31:28.363Z,94164.31
2023-02-24T01:33:54.770Z,94163.25
2023-02-24T01:36:21.062Z,94158.91
2023-02-24T01:38:47.351Z,94161.81
2023-02-24T01:41:13.593Z,94165.34
2023-02-24T01:43:39.847Z,94162.16
2023-02-24T01:46:06.145Z,94162.16
2023-02-24T01:48:32.477Z,94159.19
2023-02-24T01:50:58.754Z,94153.47
2023-02-24T01:53:25.023Z,94156.75
2023-02-24T01:55:51.291Z,94153.31
2023-02-24T01:58:17.558Z,94146.25
2023-02-24T02:00:43.913Z,94148.72
2023-02-24T02:03:10.271Z,94156.69
2023-02-24T02:05:36.514Z,94154.75
2023-02-24T02:08:02.821Z,94146.78
2023-02-24T02:10:29.103Z,94143.34
2023-02-24T02:12:55.386Z,94144.53
2023-02-24T02:15:21.644Z,94138.81
2023-02-24T02:17:47.912Z,94131.66
2023-02-24T02:20:14.165Z,94125.97
2023-02-24T02:22:40.420Z,94128.06
2023-02-24T02:25:06.682Z,94122.53
2023-02-24T02:27:32.958Z,94116.22
2023-02-24T02:29:59.229Z,94112.16
2023-02-24T02:32:25.586Z,94108.16
2023-02-24T02:34:51.895Z,94103.47
2023-02-24T02:37:18.158Z,94104.81
2023-02-24T02:39:44.436Z,94109.88
2023-02-24T02:42:10.695Z,94118.94
2023-02-24T02:44:36.940Z,94122.91
2023-02-24T02:47:03.201Z,94116.84
2023-02-24T02:49:29.447Z,94123.34
2023-02-24T02:51:55.696Z,94122.44
2023-02-24T02:54:21.963Z,94118.72
2023-02-24T02:56:48.217Z,94109.78
2023-02-24T02:59:14.462Z,94105.53
2023-02-24T03:01:40.765Z,94098.81
2023-02-24T03:04:07.038Z,94102.81
2023-02-24T03:06:33.311Z,94100.81
2023-02-24T03:08:59.562Z,94094.13
2023-02-24T03:11:25.834Z,94091.50
2023-02-24T03:13:52.110Z,94089.97
2023-02-24T03:16:18.406Z,94094.69
2023-02-24T03:18:44.672Z,94087.00
2023-02-24T03:21:10.946Z,94085.00
2023-02-24T03:23:37.190Z,94088.72
2023-02-24T03:26:03.471Z,94085.72
2023-02-24T03:28:29.737Z,94093.06
2023-02-24T03:30:55.997Z,94088.44
2023-02-24T03:33:22.288Z,94082.19
2023-02-24T03:35:48.531Z,94087.34
2023-02-24T03:38:14.797Z,94097.13
2023-02-24T03:40:41.042Z,94094.94
2023-02-24T03:43:07.301Z,94099.84
2023-02-24T03:45:33.562Z,94094.88
2023-02-24T03:47:59.835Z,94091.59
2023-02-24T03:50:26.106Z,94095.94
2023-02-24T03:52:52.379Z,94104.56
2023-02-24T03:55:18.673Z,94107.06
2023-02-24T03:57:44.950Z,94103.44
2023-02-24T04:00:11.190Z,94103.50
2023-02-24T04:02:37.474Z,94098.16
2023-02-24T04:05:03.812Z,94098.63
2023-02-24T04:07:30.124Z,94102.03
2023-02-24T04:09:56.387Z,94091.56
2023-02-24T04:12:22.682Z,94097.50
2023-02-24T04:14:48.971Z,94097.50
2023-02-24T04:17:15.231Z,94095.56
2023-02-24T04:19:41.481Z,94095.25
2023-02-24T04:22:07.764Z,94093.69
2023-02-24T04:24:34.048Z,94094.81
2023-02-24T04:27:00.316Z,94097.66
2023-02-24T04:29:26.579Z,94089.84
2023-02-24T04:31:53.037Z,94094.88
2023-02-24T04:34:19.405Z,94091.19
2023-02-24T04:36:45.673Z,94091.63
2023-02-24T04:39:11.940Z,94096.41
2023-02-24T04:41:38.197Z,94093.44
2023-02-24T04:44:04.468Z,94093.94
2023-02-24T04:46:30.753Z,94085.69
2023-02-24T04:48:57.198Z,94082.75
2023-02-24T04:51:23.629Z,94077.00
2023-02-24T04:53:49.960Z,94081.09
2023-02-24T04:56:16.211Z,94077.19
2023-02-24T04:58:42.468Z,94078.19
2023-02-24T05:01:08.739Z,94079.81
2023-02-24T05:03:34.993Z,94061.69
2023-02-24T05:06:01.322Z,94060.06
2023-02-24T05:08:27.571Z,94058.63
2023-02-24T05:10:53.851Z,94069.94
2023-02-24T05:13:20.119Z,94059.97
2023-02-24T05:15:46.440Z,94064.56
2023-02-24T05:18:12.740Z,94056.38
2023-02-24T05:20:39.022Z,94056.47
2023-02-24T05:23:05.294Z,94054.69
2023-02-24T05:25:31.579Z,94042.41
2023-02-24T05:27:57.847Z,94041.00
2023-02-24T05:30:24.139Z,94048.72
2023-02-24T05:32:50.504Z,94041.59
2023-02-24T05:35:16.800Z,94041.13
2023-02-24T05:37:43.056Z,94039.50
2023-02-24T05:40:09.361Z,94043.91
2023-02-24T05:42:35.615Z,94039.84
2023-02-24T05:45:01.876Z,94034.78
2023-02-24T05:47:28.148Z,94036.41
2023-02-24T05:49:54.410Z,94030.25
2023-02-24T05:52:20.661Z,94032.63
2023-02-24T05:54:46.928Z,94033.09
2023-02-24T05:57:13.208Z,94036.81
2023-02-24T05:59:39.473Z,94033.44
2023-02-24T06:02:05.764Z,94032.28
2023-02-24T06:04:32.092Z,94028.38
2023-02-24T06:06:58.338Z,94031.25
2023-02-24T06:09:24.603Z,94041.06
2023-02-24T06:11:51.008Z,94036.00
2023-02-24T06:14:17.290Z,94034.09
2023-02-24T06:16:43.627Z,94035.72
2023-02-24T06:19:09.992Z,94032.56
2023-02-24T06:21:36.262Z,94034.56
2023-02-24T06:24:02.550Z,94026.34
2023-02-24T06:26:28.803Z,94029.88
2023-02-24T06:28:55.058Z,94033.38
2023-02-24T06:31:21.736Z,94031.28
2023-02-24T06:33:48.190Z,94022.91
2023-02-24T06:36:14.490Z,94030.28
2023-02-24T06:38:40.772Z,94030.34
2023-02-24T06:41:07.039Z,94032.94
2023-02-24T06:43:33.315Z,94031.47
2023-02-24T06:45:59.674Z,94026.81
2023-02-24T06:48:25.942Z,94035.94
2023-02-24T06:50:52.198Z,94034.13
2023-02-24T06:53:18.480Z,94038.16
2023-02-24T06:55:44.742Z,94042.97
2023-02-24T06:58:11.006Z,94045.78
2023-02-24T07:00:37.433Z,94037.41
2023-02-24T07:03:03.722Z,94046.38
2023-02-24T07:05:29.993Z,94048.91
2023-02-24T07:07:56.249Z,94046.09
2023-02-24T07:10:22.526Z,94041.84
2023-02-24T07:12:48.794Z,94034.09
2023-02-24T07:15:15.090Z,94029.19
2023-02-24T07:17:41.342Z,94037.59
2023-02-24T07:20:07.624Z,94026.16
2023-02-24T07:22:33.884Z,94039.16
2023-02-24T07:25:00.161Z,94038.16
2023-02-24T07:27:26.429Z,94037.22
2023-02-24T07:29:53.706Z,94030.16
2023-02-24T07:32:20.159Z,94030.88
2023-02-24T07:34:46.441Z,94042.22
2023-02-24T07:37:12.719Z,94035.69
2023-02-24T07:39:38.977Z,94039.16
2023-02-24T07:42:05.267Z,94040.44
2023-02-24T07:44:31.556Z,94037.69
2023-02-24T07:46:57.814Z,94037.44
2023-02-24T07:49:24.066Z,94038.56
2023-02-24T07:51:50.324Z,94032.06
2023-02-24T07:54:16.574Z,94026.22
2023-02-24T07:56:42.851Z,94022.16
2023-02-24T07:59:09.106Z,94016.28
2023-02-24T08:01:35.354Z,94018.00
2023-02-24T08:04:01.629Z,94009.50
2023-02-24T08:06:27.903Z,94010.50
2023-02-24T08:08:54.297Z,94002.56
2023-02-24T08:11:20.854Z,94003.53
2023-02-24T08:13:47.274Z,94007.97
2023-02-24T08:16:13.580Z,94006.06
2023-02-24T08:18:39.856Z,94011.38
2023-02-24T08:21:06.130Z,94016.91
2023-02-24T08:23:32.414Z,94010.47
2023-02-24T08:25:58.704Z,94014.47
2023-02-24T08:28:24.975Z,94012.09
2023-02-24T08:30:51.331Z,94003.09
2023-02-24T08:33:17.623Z,93989.16
2023-02-24T08:35:43.893Z,93987.69
2023-02-24T08:38:10.159Z,93979.47
2023-02-24T08:40:36.413Z,93985.25
2023-02-24T08:43:02.686Z,93986.75
2023-02-24T08:45:28.932Z,93981.81
2023-02-24T08:47:55.182Z,93975.19
2023-02-24T08:50:21.442Z,93971.09
2023-02-24T08:52:47.707Z,93968.91
2023-02-24T08:55:13.954Z,93967.75
2023-02-24T08:57:40.228Z,93958.47
2023-02-24T09:00:06.490Z,93964.44
2023-02-24T09:02:32.755Z,93958.50
2023-02-24T09:04:59.105Z,93960.75
2023-02-24T09:07:25.386Z,93956.13
2023-02-24T09:09:51.645Z,93956.56
2023-02-24T09:12:17.899Z,93965.13
2023-02-24T09:14:44.166Z,93957.59
2023-02-24T09:17:10.483Z,93956.50
2023-02-24T09:19:36.756Z,93952.22
2023-02-24T09:22:07.806Z,93942.66
2023-02-24T09:24:36.554Z,93941.50
2023-02-24T09:27:02.839Z,93940.34
2023-02-24T09:29:29.122Z,93945.59
2023-02-24T09:31:55.597Z,93940.91
2023-02-24T09:34:22.049Z,93949.44
2023-02-24T09:36:48.315Z,93943.41
2023-02-24T09:39:14.737Z,93938.19
2023-02-24T09:41:41.117Z,93933.97
2023-02-24T09:44:07.691Z,93922.31
2023-02-24T09:46:34.328Z,93909.81
2023-02-24T09:49:00.711Z,93902.34
2023-02-24T09:51:26.965Z,93915.66
2023-02-24T09:53:53.222Z,93909.06
2023-02-24T09:56:19.496Z,93903.84
2023-02-24T09:58:45.804Z,93913.53
2023-02-24T10:01:12.118Z,93902.47
2023-02-24T10:03:38.414Z,93900.25
2023-02-24T10:06:04.688Z,93892.13
2023-02-24T10:08:30.981Z,93892.34
2023-02-24T10:10:57.243Z,93877.22
2023-02-24T10:13:23.536Z,93882.06
2023-02-24T10:15:49.916Z,93879.47
2023-02-24T10:18:16.190Z,93874.41
2023-02-24T10:20:42.475Z,93878.28
2023-02-24T10:23:08.767Z,93883.56
2023-02-24T10:25:35.065Z,93877.47
2023-02-24T10:28:01.342Z,93882.13
2023-02-24T10:30:27.882Z,93868.19
2023-02-24T10:32:54.380Z,93879.28
2023-02-24T10:35:20.682Z,93865.75
2023-02-24T10:37:46.967Z,93866.56
2023-02-24T10:40:13.222Z,93865.16
2023-02-24T10:42:39.522Z,93871.44
2023-02-24T10:45:09.709Z,93866.34
2023-02-24T10:47:36.222Z,93871.41
2023-02-24T10:50:02.496Z,93860.47
2023-02-24T10:52:28.782Z,93864.94
2023-02-24T10:54:55.069Z,93863.91
2023-02-24T10:57:21.327Z,93857.63
2023-02-24T10:59:47.636Z,93850.09
2023-02-24T11:02:13.968Z,93855.75
2023-02-24T11:04:40.264Z,93849.66
2023-02-24T11:07:06.533Z,93847.81
2023-02-24T11:09:32.809Z,93847.56
2023-02-24T11:11:59.103Z,93845.94
2023-02-24T11:14:25.394Z,93835.41
2023-02-24T11:16:51.679Z,93840.22
2023-02-24T11:19:17.930Z,93839.00
2023-02-24T11:21:44.197Z,93828.19
2023-02-24T11:24:10.466Z,93827.34
2023-02-24T11:26:36.732Z,93828.50
2023-02-24T11:29:02.982Z,93823.00
2023-02-24T11:31:29.327Z,93816.88
2023-02-24T11:33:55.694Z,93808.56
2023-02-24T11:36:21.965Z,93805.50
2023-02-24T11:38:48.216Z,93803.09
2023-02-24T11:41:14.471Z,93804.44
2023-02-24T11:43:40.741Z,93796.84
2023-02-24T11:46:07.321Z,93792.88
2023-02-24T11:48:33.680Z,93784.63
2023-02-24T11:50:59.948Z,93779.34
2023-02-24T11:53:26.216Z,93775.88
2023-02-24T11:55:52.469Z,93768.38
2023-02-24T11:58:18.733Z,93759.41
2023-02-24T12:00:46.921Z,93764.78
2023-02-24T12:03:14.094Z,93754.75
2023-02-24T12:05:40.410Z,93750.34
2023-02-24T12:08:06.727Z,93749.91
2023-02-24T12:10:33.097Z,93747.94
2023-02-24T12:12:59.361Z,93742.81
2023-02-24T12:15:25.629Z,93739.78
2023-02-24T12:17:51.998Z,93734.31
2023-02-24T12:20:18.339Z,93729.88
2023-02-24T12:22:44.629Z,93724.66
2023-02-24T12:25:10.894Z,93728.13
2023-02-24T12:27:37.157Z,93720.22
2023-02-24T12:30:03.431Z,93725.13
2023-02-24T12:32:29.816Z,93718.38
2023-02-24T12:34:56.156Z,93723.34
2023-02-24T12:37:22.405Z,93718.41
2023-02-24T12:39:48.666Z,93713.66
2023-02-24T12:42:14.964Z,93715.03
2023-02-24T12:44:41.228Z,93708.53
2023-02-24T12:47:07.506Z,93709.97
2023-02-24T12:49:33.763Z,93702.31
2023-02-24T12:52:00.033Z,93702.38
2023-02-24T12:54:26.285Z,93695.91
2023-02-24T12:56:52.549Z,93690.97
2023-02-24T12:59:18.837Z,93696.19
2023-02-24T13:01:45.111Z,93686.19
2023-02-24T13:04:11.379Z,93686.34
2023-02-24T13:06:37.675Z,93679.44
2023-02-24T13:09:03.927Z,93675.28
2023-02-24T13:11:30.189Z,93660.09
2023-02-24T13:13:56.482Z,93665.88
2023-02-24T13:16:22.756Z,93662.88
2023-02-24T13:18:49.027Z,93660.47
2023-02-24T13:21:15.304Z,93660.81
2023-02-24T13:23:41.576Z,93652.53
2023-02-24T13:26:07.837Z,93647.84
2023-02-24T13:28:34.103Z,93641.81
2023-02-24T13:31:00.396Z,93636.78
2023-02-24T13:33:26.689Z,93628.84
2023-02-24T13:35:52.959Z,93635.31
2023-02-24T13:38:19.223Z,93635.63
2023-02-24T13:40:45.505Z,93635.75
2023-02-24T13:43:11.771Z,93632.94
2023-02-24T13:45:38.072Z,93629.75
2023-02-24T13:48:04.344Z,93634.00
2023-02-24T13:50:30.657Z,93635.69
2023-02-24T13:52:56.922Z,93626.28
2023-02-24T13:55:23.202Z,93631.22
2023-02-24T13:57:49.488Z,93624.25
2023-02-24T14:00:15.769Z,93622.75
2023-02-24T14:02:42.072Z,93623.78
2023-02-24T14:05:08.500Z,93613.66
2023-02-24T14:07:34.810Z,93619.03
2023-02-24T14:10:01.080Z,93612.84
2023-02-24T14:12:27.374Z,93603.84
2023-02-24T14:14:53.642Z,93610.19
2023-02-24T14:17:19.890Z,93611.44
2023-02-24T14:19:46.171Z,93604.00
2023-02-24T14:22:13.237Z,93599.16
2023-02-24T14:24:39.566Z,93597.13
2023-02-24T14:27:05.846Z,93595.69
2023-02-24T14:29:34.094Z,93587.88
2023-02-24T14:32:02.821Z,93595.63
2023-02-24T14:34:29.146Z,93591.88
2023-02-24T14:36:55.409Z,93584.75
2023-02-24T14:39:21.673Z,93587.09
2023-02-24T14:41:47.939Z,93582.19
2023-02-24T14:44:14.207Z,93585.63
2023-02-24T14:46:40.513Z,93578.97
2023-02-24T14:49:06.858Z,93575.94
2023-02-24T14:51:33.128Z,93568.56
2023-02-24T14:53:59.403Z,93567.28
2023-02-24T14:56:25.763Z,93563.81
2023-02-24T14:58:52.142Z,93560.91
2023-02-24T15:01:18.462Z,93564.38
2023-02-24T15:03:44.727Z,93552.53
2023-02-24T15:06:10.989Z,93553.56
2023-02-24T15:08:37.258Z,93557.66
2023-02-24T15:11:03.510Z,93556.97
2023-02-24T15:13:29.801Z,93557.22
2023-02-24T15:15:56.194Z,93553.75
2023-02-24T15:18:22.462Z,93548.66
2023-02-24T15:20:48.730Z,93552.63
2023-02-24T15:23:14.993Z,93544.25
2023-02-24T15:25:43.012Z,93529.78
2023-02-24T15:28:09.459Z,93533.63
2023-02-24T15:30:35.769Z,93539.22
2023-02-24T15:33:02.192Z,93529.72
2023-02-24T15:35:28.494Z,93524.91
2023-02-24T15:37:54.758Z,93526.09
2023-02-24T15:40:21.030Z,93532.34
2023-02-24T15:42:47.288Z,93520.41
2023-02-24T15:45:13.558Z,93518.50
2023-02-24T15:47:39.827Z,93515.56
2023-02-24T15:50:06.076Z,93511.75
2023-02-24T15:52:32.323Z,93508.25
2023-02-24T15:54:58.602Z,93516.56
2023-02-24T15:57:24.917Z,93509.47
2023-02-24T15:59:51.196Z,93508.97
2023-02-24T16:02:17.460Z,93511.63
2023-02-24T16:04:43.725Z,93510.19
2023-02-24T16:07:09.976Z,93510.25
2023-02-24T16:09:36.251Z,93513.66
2023-02-24T16:12:02.516Z,93520.38
2023-02-24T16:14:28.798Z,93518.56
2023-02-24T16:16:55.095Z,93518.94
2023-02-24T16:19:21.353Z,93515.16
2023-02-24T16:21:47.602Z,93513.44
2023-02-24T16:24:14.180Z,93507.53
2023-02-24T16:26:40.491Z,93508.13
2023-02-24T16:29:06.753Z,93505.50
2023-02-24T16:31:33.157Z,93502.78
2023-02-24T16:33:59.741Z,93503.22
2023-02-24T16:36:26.778Z,93494.94
2023-02-24T16:38:53.294Z,93497.81
2023-02-24T16:41:19.552Z,93492.16
2023-02-24T16:43:45.866Z,93488.47
2023-02-24T16:46:12.216Z,93491.94
2023-02-24T16:48:38.583Z,93494.38
2023-02-24T16:51:04.849Z,93491.78
2023-02-24T16:53:31.128Z,93496.34
2023-02-24T16:55:57.400Z,93495.59
2023-02-24T16:58:23.682Z,93499.72
2023-02-24T17:00:50.058Z,93510.66
2023-02-24T17:03:16.482Z,93507.00
2023-02-24T17:05:43.930Z,93510.34
2023-02-24T17:08:10.586Z,93510.69
2023-02-24T17:10:36.846Z,93507.47
2023-02-24T17:13:03.107Z,93503.91
2023-02-24T17:15:29.374Z,93514.00
2023-02-24T17:17:55.665Z,93511.59
2023-02-24T17:20:21.917Z,93515.06
2023-02-24T17:22:48.162Z,93513.44
2023-02-24T17:25:14.443Z,93510.00
2023-02-24T17:27:40.748Z,93519.66
2023-02-24T17:30:07.026Z,93514.81
2023-02-24T17:32:33.341Z,93519.31
2023-02-24T17:34:59.604Z,93515.78
2023-02-24T17:37:25.874Z,93515.38
2023-02-24T17:39:52.127Z,93519.97
2023-02-24T17:42:18.394Z,93517.53
2023-02-24T17:44:44.654Z,93520.03
2023-02-24T17:47:10.907Z,93512.25
2023-02-24T17:49:37.161Z,93525.00
2023-02-24T17:52:06.124Z,93525.56
2023-02-24T17:54:32.542Z,93534.63
2023-02-24T17:56:58.814Z,93534.94
2023-02-24T17:59:25.197Z,93541.34
2023-02-24T18:01:51.485Z,93539.41
2023-02-24T18:04:17.795Z,93533.66
2023-02-24T18:06:44.050Z,93528.81
2023-02-24T18:09:10.315Z,93536.22
2023-02-24T18:11:36.572Z,93527.56
2023-02-24T18:14:02.832Z,93537.19
2023-02-24T18:16:29.141Z,93535.81
2023-02-24T18:18:55.429Z,93537.06
2023-02-24T18:21:21.686Z,93538.09
2023-02-24T18:23:47.944Z,93547.44
2023-02-24T18:26:14.213Z,93542.47
2023-02-24T18:28:40.475Z,93544.47
2023-02-24T18:31:06.832Z,93548.06
2023-02-24T18:33:33.257Z,93548.22
2023-02-24T18:35:59.547Z,93554.28
2023-02-24T18:38:25.826Z,93556.31
2023-02-24T18:40:52.090Z,93560.22
2023-02-24T18:43:18.358Z,93564.88
2023-02-24T18:45:44.629Z,93558.44
2023-02-24T18:48:10.894Z,93553.75
2023-02-24T18:50:37.167Z,93556.78
2023-02-24T18:53:03.441Z,93561.72
2023-02-24T18:55:29.703Z,93556.03
2023-02-24T18:57:55.961Z,93556.03
2023-02-24T19:00:22.218Z,93558.38
2023-02-24T19:02:48.510Z,93551.84
2023-02-24T19:05:14.794Z,93554.28
2023-02-24T19:07:41.070Z,93548.75
2023-02-24T19:10:07.355Z,93552.31
2023-02-24T19:12:33.684Z,93556.00
2023-02-24T19:14:59.927Z,93561.56
2023-02-24T19:17:26.187Z,93567.69
2023-02-24T19:19:52.458Z,93565.44
2023-02-24T19:22:18.706Z,93567.44
2023-02-24T19:24:44.975Z,93569.44
2023-02-24T19:27:11.244Z,93572.28
2023-02-24T19:29:37.486Z,93578.53
2023-02-24T19:32:03.820Z,93576.88
2023-02-24T19:34:30.152Z,93580.63
2023-02-24T19:36:56.394Z,93578.31
2023-02-24T19:39:22.658Z,93576.34
2023-02-24T19:41:49.900Z,93581.22
2023-02-24T19:44:16.344Z,93586.31
2023-02-24T19:46:42.590Z,93585.72
2023-02-24T19:49:08.835Z,93584.69
2023-02-24T19:51:35.109Z,93591.47
2023-02-24T19:54:01.353Z,93593.19
2023-02-24T19:56:27.656Z,93598.53
2023-02-24T19:58:53.918Z,93605.63
2023-02-24T20:01:20.173Z,93601.19
2023-02-24T20:03:46.474Z,93597.09
2023-02-24T20:06:12.724Z,93603.88
2023-02-24T20:08:38.976Z,93603.47
2023-02-24T20:11:05.229Z,93604.19
2023-02-24T20:13:31.490Z,93605.47
2023-02-24T20:15:57.732Z,93607.72
2023-02-24T20:18:24.164Z,93607.13
2023-02-24T20:20:50.444Z,93608.31
2023-02-24T20:23:16.702Z,93613.38
2023-02-24T20:25:43.042Z,93618.47
2023-02-24T20:28:09.299Z,93619.84
2023-02-24T20:30:35.574Z,93619.69
2023-02-24T20:33:01.875Z,93613.63
2023-02-24T20:35:28.158Z,93619.91
2023-02-24T20:37:54.427Z,93607.97
2023-02-24T20:40:20.697Z,93618.75
2023-02-24T20:42:46.956Z,93615.47
2023-02-24T20:45:13.211Z,93623.78
2023-02-24T20:47:39.472Z,93629.94
2023-02-24T20:50:05.759Z,93618.59
2023-02-24T20:52:32.032Z,93621.91
2023-02-24T20:54:58.297Z,93626.09
2023-02-24T20:57:24.569Z,93623.91
2023-02-24T21:00:02.845Z,93621.69
2023-02-24T21:02:29.662Z,93625.94
2023-02-24T21:04:55.988Z,93633.44
2023-02-24T21:07:22.261Z,93628.38
2023-02-24T21:09:48.587Z,93631.84
2023-02-24T21:12:14.877Z,93645.00
2023-02-24T21:14:41.153Z,93641.75
2023-02-24T21:17:07.393Z,93647.03
2023-02-24T21:19:33.656Z,93655.91
2023-02-24T21:21:59.922Z,93655.31
2023-02-24T21:24:26.187Z,93666.25
2023-02-24T21:26:52.433Z,93676.78
2023-02-24T21:29:18.682Z,93678.22
2023-02-24T21:31:45.132Z,93675.78
2023-02-24T21:34:11.474Z,93689.13
2023-02-24T21:36:37.742Z,93673.56
2023-02-24T21:39:04.017Z,93685.09
2023-02-24T21:41:30.298Z,93684.88
2023-02-24T21:43:56.583Z,93696.41
2023-02-24T21:46:23.192Z,93688.06
2023-02-24T21:48:49.634Z,93688.66
2023-02-24T21:51:15.877Z,93690.47
2023-02-24T21:53:42.160Z,93691.44
2023-02-24T21:56:08.433Z,93711.59
2023-02-24T21:58:34.695Z,93722.69
2023-02-24T22:01:00.932Z,93718.47
2023-02-24T22:03:27.258Z,93719.44
2023-02-24T22:05:53.545Z,93714.59
2023-02-24T22:08:19.825Z,93718.97
2023-02-24T22:10:46.089Z,93707.69
2023-02-24T22:13:12.341Z,93703.47
2023-02-24T22:15:38.602Z,93698.94
2023-02-24T22:18:04.870Z,93700.41
2023-02-24T22:20:31.115Z,93711.97
2023-02-24T22:22:57.394Z,93713.03
2023-02-24T22:25:23.634Z,93709.78
2023-02-24T22:27:49.946Z,93719.72
2023-02-24T22:30:16.205Z,93709.81
2023-02-24T22:32:42.517Z,93705.56
2023-02-24T22:35:08.818Z,93704.13
2023-02-24T22:37:35.163Z,93700.06
2023-02-24T22:40:01.452Z,93712.97
2023-02-24T22:42:27.722Z,93700.78
2023-02-24T22:44:53.998Z,93702.16
2023-02-24T22:47:20.242Z,93703.59
2023-02-24T22:49:46.483Z,93702.03
2023-02-24T22:52:12.760Z,93702.44
2023-02-24T22:54:39.038Z,93712.91
2023-02-24T22:57:05.340Z,93706.72
2023-02-24T22:59:31.597Z,93715.72
2023-02-24T23:01:57.906Z,93721.63
2023-02-24T23:04:24.180Z,93717.09
2023-02-24T23:06:50.485Z,93729.34
2023-02-24T23:09:16.962Z,93729.38
2023-02-24T23:11:43.236Z,93730.94
2023-02-24T23:14:09.485Z,93731.56
2023-02-24T23:16:35.810Z,93723.28
2023-02-24T23:19:02.074Z,93728.94
2023-02-24T23:21:28.334Z,93728.50
2023-02-24T23:23:54.575Z,93723.81
2023-02-24T23:26:21.317Z,93727.56
2023-02-24T23:28:47.704Z,93731.59
2023-02-24T23:31:14.072Z,93739.03
2023-02-24T23:33:40.366Z,93728.94
2023-02-24T23:36:06.636Z,93731.16
2023-02-24T23:38:32.880Z,93723.53
2023-02-24T23:40:59.159Z,93727.03
2023-02-24T23:43:25.414Z,93727.81
2023-02-24T23:45:51.750Z,93724.53
2023-02-24T23:48:18.037Z,93717.84
2023-02-24T23:50:44.293Z,93716.94
2023-02-24T23:53:10.577Z,93727.25
2023-02-24T23:55:36.876Z,93717.69
2023-02-24T23:58:03.160Z,93718.66
